Time;durP1;ratioP1;P1;durP2;ratioP2;P2;SDS_P1;SDS_P2;PMS_P1;PMS_P2;Temp;Humidity;BMP_temperature;BMP_pressure;BME280_temperature;BME280_humidity;BME280_pressure;Samples;Min_cycle;Max_cycle;Signal;HPM_P1;HPM_P2
2021/12/19 00:01:34;;;;;;;100.20;33.15;;;5.10;95.70;;;;;;5010097;28;20026;-77
2021/12/19 00:09:29;;;;;;;126.35;33.55;;;5.20;95.80;;;;;;5019424;28;20081;-74
2021/12/19 00:11:58;;;;;;;147.18;36.58;;;5.20;95.80;;;;;;5011153;28;20291;-75
2021/12/19 00:14:25;;;;;;;103.88;34.60;;;5.20;95.80;;;;;;5018144;28;20041;-75
2021/12/19 00:16:51;;;;;;;114.03;36.08;;;5.30;95.90;;;;;;5013864;28;20030;-74
2021/12/19 00:19:18;;;;;;;102.72;36.38;;;5.30;95.80;;;;;;5004438;28;20136;-74
2021/12/19 00:21:44;;;;;;;140.90;40.72;;;5.40;95.90;;;;;;5015612;28;20030;-75
2021/12/19 00:24:11;;;;;;;145.90;41.80;;;5.40;95.90;;;;;;5019239;28;20084;-75
2021/12/19 00:26:37;;;;;;;161.32;40.88;;;5.50;95.90;;;;;;5010751;28;20053;-76
2021/12/19 00:29:04;;;;;;;137.32;41.45;;;5.50;95.80;;;;;;5014848;28;20033;-74
2021/12/19 00:31:31;;;;;;;134.27;40.10;;;5.40;95.80;;;;;;5012348;28;20082;-73
2021/12/19 00:33:59;;;;;;;126.78;39.67;;;5.50;95.80;;;;;;5021653;28;20034;-75
2021/12/19 00:36:25;;;;;;;124.78;39.08;;;5.50;95.80;;;;;;5016374;28;20034;-77
2021/12/19 00:38:51;;;;;;;124.68;39.92;;;5.50;95.70;;;;;;5017547;28;20102;-75
2021/12/19 00:41:17;;;;;;;124.07;39.47;;;5.50;95.80;;;;;;5015659;28;20019;-74
2021/12/19 00:43:46;;;;;;;126.60;37.13;;;5.50;95.70;;;;;;5022293;28;20082;-75
2021/12/19 00:46:15;;;;;;;127.28;37.30;;;5.60;95.70;;;;;;5014569;28;20022;-75
2021/12/19 00:48:51;;;;;;;139.95;39.03;;;5.60;95.70;;;;;;5019770;28;20101;-76
2021/12/19 00:51:24;;;;;;;152.80;39.58;;;5.50;95.60;;;;;;5005560;28;20019;-75
2021/12/19 00:53:52;;;;;;;146.45;42.08;;;5.50;95.60;;;;;;5008577;28;20098;-75
2021/12/19 00:56:18;;;;;;;124.30;39.05;;;5.40;95.60;;;;;;5018508;28;20031;-72
2021/12/19 00:58:44;;;;;;;146.10;43.15;;;5.50;95.70;;;;;;5002749;28;20104;-74
2021/12/19 01:01:13;;;;;;;143.38;41.83;;;5.50;95.60;;;;;;5006698;28;20014;-75
2021/12/19 01:03:43;;;;;;;187.85;44.75;;;5.50;95.60;;;;;;5021624;28;20034;-75
2021/12/19 01:06:09;;;;;;;142.15;41.42;;;5.50;95.60;;;;;;5007384;28;20018;-74
2021/12/19 01:08:35;;;;;;;212.10;47.17;;;5.50;95.60;;;;;;5010181;28;20046;-74
2021/12/19 01:11:00;;;;;;;135.40;43.67;;;5.50;95.60;;;;;;5011016;28;20033;-74
2021/12/19 01:13:26;;;;;;;213.23;46.80;;;5.50;95.60;;;;;;5005917;28;20029;-74
2021/12/19 01:15:53;;;;;;;156.90;45.42;;;5.50;95.70;;;;;;5012137;28;20046;-75
2021/12/19 01:18:19;;;;;;;160.68;45.45;;;5.50;95.70;;;;;;5025817;28;20026;-75
2021/12/19 01:20:45;;;;;;;171.70;45.30;;;5.60;95.70;;;;;;5014276;28;20053;-75
2021/12/19 01:23:12;;;;;;;149.40;41.80;;;5.60;95.70;;;;;;5016607;28;20018;-76
2021/12/19 01:25:38;;;;;;;130.23;38.20;;;5.60;95.60;;;;;;5016424;28;20101;-73
2021/12/19 01:28:05;;;;;;;143.13;35.30;;;5.70;95.70;;;;;;5015759;28;20027;-74
2021/12/19 01:30:31;;;;;;;112.32;34.65;;;5.60;95.60;;;;;;5027467;28;20087;-75
2021/12/19 01:32:57;;;;;;;125.50;34.40;;;5.60;95.60;;;;;;5015784;28;20030;-75
2021/12/19 01:35:24;;;;;;;107.75;31.05;;;5.60;95.50;;;;;;5012978;28;20019;-70
2021/12/19 01:37:50;;;;;;;103.05;29.95;;;5.60;95.50;;;;;;5020441;28;20084;-74
2021/12/19 01:40:18;;;;;;;101.85;30.08;;;5.50;95.40;;;;;;5019244;28;20041;-76
2021/12/19 01:42:46;;;;;;;106.85;29.75;;;5.50;95.30;;;;;;5014122;28;20033;-75
2021/12/19 01:45:21;;;;;;;109.60;31.98;;;5.50;95.40;;;;;;5025439;28;20080;-75
2021/12/19 01:47:49;;;;;;;131.70;33.38;;;5.40;95.40;;;;;;5022499;28;20026;-74
2021/12/19 01:50:15;;;;;;;144.30;38.42;;;5.50;95.50;;;;;;5014328;28;20098;-75
2021/12/19 01:52:40;;;;;;;157.40;37.80;;;5.50;95.50;;;;;;5015500;28;20105;-72
2021/12/19 01:55:06;;;;;;;144.82;36.47;;;5.50;95.50;;;;;;5014604;28;20034;-74
2021/12/19 01:57:34;;;;;;;142.27;37.22;;;5.50;95.60;;;;;;5012925;28;20082;-75
2021/12/19 02:00:00;;;;;;;139.68;36.13;;;5.60;95.50;;;;;;5026416;28;20023;-75
2021/12/19 02:02:26;;;;;;;147.23;35.65;;;5.60;95.50;;;;;;5011906;28;20026;-72
2021/12/19 02:04:52;;;;;;;128.55;35.95;;;5.60;95.50;;;;;;5020583;28;20131;-74
2021/12/19 02:07:18;;;;;;;139.48;36.05;;;5.60;95.50;;;;;;5013949;28;20018;-76
2021/12/19 02:09:44;;;;;;;169.45;36.60;;;5.60;95.50;;;;;;5021938;28;20018;-75
2021/12/19 02:12:11;;;;;;;131.25;36.40;;;5.60;95.40;;;;;;5023865;28;20022;-75
2021/12/19 02:14:37;;;;;;;179.85;36.67;;;5.60;95.50;;;;;;5013381;28;20042;-71
2021/12/19 02:17:04;;;;;;;129.73;35.15;;;5.60;95.40;;;;;;5017727;28;20042;-74
2021/12/19 02:19:31;;;;;;;190.60;37.33;;;5.60;95.40;;;;;;5009555;28;20108;-74
2021/12/19 02:21:57;;;;;;;180.63;37.17;;;5.60;95.40;;;;;;5012735;28;20106;-75
2021/12/19 02:24:22;;;;;;;165.43;37.55;;;5.60;95.50;;;;;;5013380;28;20018;-70
2021/12/19 02:26:48;;;;;;;215.55;39.33;;;5.50;95.40;;;;;;5012288;28;20038;-74
2021/12/19 02:29:14;;;;;;;155.13;37.28;;;5.60;95.50;;;;;;5014779;28;20107;-75
2021/12/19 02:31:40;;;;;;;124.88;33.30;;;5.60;95.50;;;;;;5013850;28;20026;-75
2021/12/19 02:50:12;;;;;;;153.77;35.53;;;5.50;95.60;;;;;;5025694;28;20024;-75
2021/12/19 02:52:38;;;;;;;152.13;37.88;;;5.50;95.60;;;;;;5018890;28;20018;-75
2021/12/19 02:55:05;;;;;;;143.80;36.78;;;5.60;95.70;;;;;;5018794;28;20049;-76
2021/12/19 02:57:31;;;;;;;220.18;40.05;;;5.60;95.70;;;;;;5016820;28;20031;-75
2021/12/19 02:59:57;;;;;;;147.40;37.50;;;5.70;95.70;;;;;;5012586;28;20336;-76
2021/12/19 03:02:22;;;;;;;157.13;36.05;;;5.60;95.60;;;;;;5016903;28;20018;-76
2021/12/19 03:05:07;;;;;;;148.25;35.97;;;5.60;95.60;;;;;;5010463;28;20034;-69
2021/12/19 03:07:38;;;;;;;259.52;40.95;;;5.70;95.70;;;;;;5016634;28;20038;-74
2021/12/19 03:18:06;;;;;;;198.40;38.00;;;5.80;95.70;;;;;;5023584;28;20068;-75
2021/12/19 03:20:33;;;;;;;217.00;37.85;;;5.80;95.70;;;;;;5016822;28;20107;-76
2021/12/19 03:23:01;;;;;;;155.65;35.83;;;5.80;95.70;;;;;;5020319;28;20014;-75
2021/12/19 03:25:28;;;;;;;169.82;37.63;;;5.80;95.60;;;;;;5018333;28;20022;-74
2021/12/19 03:27:54;;;;;;;141.98;39.13;;;5.80;95.60;;;;;;5011006;28;20022;-75
2021/12/19 03:30:19;;;;;;;155.70;37.00;;;5.80;95.70;;;;;;5021513;28;20020;-76
2021/12/19 03:32:45;;;;;;;151.02;36.40;;;5.80;95.60;;;;;;5021870;28;20032;-75
2021/12/19 03:35:13;;;;;;;188.20;36.33;;;5.80;95.60;;;;;;5019564;28;20022;-74
2021/12/19 03:37:39;;;;;;;131.35;34.78;;;5.80;95.60;;;;;;5014017;28;20340;-75
2021/12/19 03:40:10;;;;;;;152.25;35.33;;;5.80;95.60;;;;;;5025912;28;20243;-74
2021/12/19 03:42:48;;;;;;;156.57;33.42;;;5.80;95.50;;;;;;5017543;28;20057;-75
2021/12/19 03:45:17;;;;;;;125.80;34.65;;;5.80;95.50;;;;;;5018873;28;20052;-75
2021/12/19 03:47:44;;;;;;;152.65;34.03;;;5.80;95.50;;;;;;5009697;28;20034;-75
2021/12/19 03:50:12;;;;;;;229.38;34.40;;;5.80;95.50;;;;;;5019603;28;20026;-74
2021/12/19 03:52:38;;;;;;;126.38;33.15;;;5.70;95.40;;;;;;5016357;28;20041;-74
2021/12/19 03:55:05;;;;;;;134.57;32.88;;;5.70;95.50;;;;;;5015270;28;20092;-75
2021/12/19 03:57:31;;;;;;;138.65;33.15;;;5.70;95.50;;;;;;5009766;28;20018;-75
2021/12/19 03:59:56;;;;;;;110.65;30.65;;;5.80;95.50;;;;;;5023534;28;20030;-75
2021/12/19 04:02:26;;;;;;;130.88;33.95;;;5.80;95.60;;;;;;5009065;28;20082;-70
2021/12/19 04:04:55;;;;;;;130.10;33.28;;;5.80;95.50;;;;;;5001973;28;20023;-75
2021/12/19 04:07:21;;;;;;;128.77;32.67;;;5.80;95.50;;;;;;5014120;28;20025;-72
2021/12/19 04:09:47;;;;;;;123.55;32.22;;;5.80;95.50;;;;;;5011823;28;20108;-75
2021/12/19 04:12:13;;;;;;;120.32;33.05;;;5.90;95.50;;;;;;5007931;28;20086;-75
2021/12/19 04:14:39;;;;;;;211.07;38.20;;;5.90;95.50;;;;;;5022336;28;20056;-75
2021/12/19 04:17:04;;;;;;;189.80;36.03;;;5.90;95.40;;;;;;5015097;28;20022;-73
2021/12/19 04:19:31;;;;;;;154.93;33.92;;;5.80;95.40;;;;;;5017313;28;20034;-71
2021/12/19 04:21:58;;;;;;;134.65;33.30;;;5.80;95.40;;;;;;5009048;28;20041;-74
2021/12/19 04:24:23;;;;;;;110.60;32.75;;;5.80;95.40;;;;;;5010565;28;20022;-76
2021/12/19 04:26:49;;;;;;;108.68;30.52;;;5.80;95.40;;;;;;5015104;28;20026;-75
2021/12/19 04:29:15;;;;;;;105.70;31.17;;;5.90;95.40;;;;;;5016425;28;20022;-75
2021/12/19 04:31:40;;;;;;;128.18;32.70;;;5.90;95.40;;;;;;5009571;28;20030;-71
2021/12/19 04:34:06;;;;;;;113.55;32.92;;;5.70;95.20;;;;;;5013290;28;20530;-72
2021/12/19 04:36:38;;;;;;;120.68;31.95;;;5.70;95.30;;;;;;5015499;28;20033;-74
2021/12/19 04:59:56;;;;;;;134.05;31.35;;;5.80;95.50;;;;;;5016130;28;20018;-75
2021/12/19 05:15:46;;;;;;;109.72;28.52;;;5.70;95.50;;;;;;5014732;28;20065;-77
2021/12/19 05:18:11;;;;;;;115.78;29.42;;;5.80;95.40;;;;;;5010527;28;20038;-74
2021/12/19 05:20:39;;;;;;;113.13;28.88;;;5.80;95.40;;;;;;5012283;28;20036;-74
2021/12/19 05:23:18;;;;;;;151.80;31.67;;;5.80;95.40;;;;;;5013605;28;20045;-71
2021/12/19 05:25:44;;;;;;;122.50;30.15;;;5.70;95.40;;;;;;5012830;28;20025;-75
2021/12/19 05:28:10;;;;;;;155.07;33.33;;;5.70;95.50;;;;;;5020151;28;20026;-75
2021/12/19 05:30:35;;;;;;;117.22;30.80;;;5.80;95.50;;;;;;5022944;28;20030;-71
2021/12/19 05:33:02;;;;;;;136.55;30.85;;;5.70;95.50;;;;;;5011325;28;20041;-74
2021/12/19 05:46:24;;;;;;;114.27;30.00;;;5.90;95.60;;;;;;5006893;28;20297;-75
2021/12/19 05:48:50;;;;;;;111.25;30.00;;;5.80;95.50;;;;;;5011418;28;20269;-75
2021/12/19 05:51:16;;;;;;;118.32;27.95;;;5.80;95.50;;;;;;5020044;28;20085;-74
2021/12/19 05:53:41;;;;;;;147.27;30.25;;;5.80;95.50;;;;;;5018917;28;20269;-76
2021/12/19 05:56:07;;;;;;;160.95;30.70;;;5.80;95.50;;;;;;5027742;28;20034;-75
2021/12/19 05:58:33;;;;;;;80.22;25.58;;;5.80;95.50;;;;;;5018564;28;20037;-70
2021/12/19 06:00:58;;;;;;;76.72;23.30;;;5.80;95.50;;;;;;5018654;28;20027;-74
2021/12/19 06:03:25;;;;;;;79.10;23.80;;;5.80;95.50;;;;;;5009956;28;20035;-76
2021/12/19 06:05:51;;;;;;;77.00;22.85;;;5.80;95.50;;;;;;5015480;28;20053;-75
2021/12/19 06:08:17;;;;;;;83.18;25.60;;;5.90;95.50;;;;;;5015664;28;20034;-74
2021/12/19 06:10:43;;;;;;;82.93;23.65;;;5.90;95.60;;;;;;5027686;28;20022;-75
2021/12/19 06:13:08;;;;;;;77.57;23.95;;;5.90;95.60;;;;;;5033028;28;20033;-73
2021/12/19 06:15:36;;;;;;;72.47;23.02;;;5.90;95.60;;;;;;4973246;28;1166736;-75
2021/12/19 06:18:02;;;;;;;77.25;24.05;;;6.10;95.60;;;;;;5012235;28;20034;-73
2021/12/19 06:20:28;;;;;;;91.65;25.48;;;6.00;95.60;;;;;;5026559;28;20078;-75
2021/12/19 06:22:53;;;;;;;84.07;25.27;;;6.10;95.50;;;;;;5015453;28;20022;-77
2021/12/19 06:25:19;;;;;;;72.38;25.85;;;6.00;95.50;;;;;;5011878;28;20129;-72
2021/12/19 06:27:45;;;;;;;71.93;24.05;;;6.00;95.50;;;;;;5012375;28;20047;-74
2021/12/19 06:30:12;;;;;;;80.60;24.35;;;6.00;95.50;;;;;;5020592;28;20026;-75
2021/12/19 06:32:37;;;;;;;59.08;18.98;;;6.10;95.50;;;;;;5019926;28;20041;-75
2021/12/19 06:35:08;;;;;;;60.35;20.10;;;6.00;95.40;;;;;;5030222;28;20036;-76
2021/12/19 06:37:38;;;;;;;50.92;17.83;;;5.90;95.20;;;;;;5019368;28;20030;-75
2021/12/19 06:40:06;;;;;;;63.75;18.73;;;5.90;95.20;;;;;;5017863;28;20030;-72
2021/12/19 06:42:32;;;;;;;54.55;18.08;;;5.90;95.10;;;;;;5023348;28;20097;-75
2021/12/19 06:44:58;;;;;;;56.72;18.90;;;5.90;95.10;;;;;;5023255;28;20022;-76
2021/12/19 06:47:23;;;;;;;51.53;17.67;;;5.90;95.10;;;;;;5022158;28;20018;-76
2021/12/19 06:49:49;;;;;;;46.70;15.90;;;5.90;95.10;;;;;;5017037;28;20033;-72
2021/12/19 06:52:15;;;;;;;50.83;17.63;;;5.80;95.10;;;;;;5027656;28;20070;-76
2021/12/19 06:54:40;;;;;;;57.40;16.48;;;5.90;95.10;;;;;;5028571;28;20037;-76
2021/12/19 06:57:06;;;;;;;61.65;17.85;;;5.90;95.10;;;;;;5019837;28;20085;-76
2021/12/19 06:59:32;;;;;;;53.78;17.98;;;5.90;95.00;;;;;;5017885;28;20097;-75
2021/12/19 07:01:57;;;;;;;59.45;16.33;;;5.90;95.10;;;;;;5018786;28;20029;-76
2021/12/19 07:04:23;;;;;;;53.88;14.27;;;5.80;95.00;;;;;;5015328;28;20019;-71
2021/12/19 07:06:49;;;;;;;52.25;14.45;;;5.80;95.00;;;;;;5014540;28;20104;-74
2021/12/19 07:09:14;;;;;;;50.42;14.98;;;5.70;95.00;;;;;;5018962;28;20042;-75
2021/12/19 07:11:40;;;;;;;40.67;13.57;;;5.60;94.90;;;;;;5011648;28;20249;-74
2021/12/19 07:14:06;;;;;;;41.50;13.88;;;5.70;95.00;;;;;;5017096;28;20042;-75
2021/12/19 07:16:31;;;;;;;43.92;14.32;;;5.60;95.00;;;;;;5013557;28;20031;-75
2021/12/19 07:18:57;;;;;;;37.45;12.38;;;5.70;95.00;;;;;;5011057;28;20042;-75
2021/12/19 07:21:24;;;;;;;34.53;13.18;;;5.60;95.00;;;;;;5009792;28;20026;-73
2021/12/19 07:23:49;;;;;;;43.65;13.43;;;5.70;95.00;;;;;;5014850;28;20018;-74
2021/12/19 07:26:15;;;;;;;43.83;14.30;;;5.60;95.00;;;;;;5011576;28;20022;-75
2021/12/19 07:28:44;;;;;;;32.22;10.77;;;5.70;95.00;;;;;;5015501;28;20018;-74
2021/12/19 07:31:09;;;;;;;33.28;11.20;;;5.60;94.90;;;;;;5010520;28;20037;-75
2021/12/19 07:33:35;;;;;;;32.67;10.73;;;5.60;95.00;;;;;;5030006;28;20038;-74
2021/12/19 07:36:01;;;;;;;32.97;11.82;;;5.60;95.00;;;;;;5016487;28;20030;-75
2021/12/19 07:38:39;;;;;;;32.08;11.10;;;5.60;94.90;;;;;;5003775;28;20034;-75
2021/12/19 07:41:05;;;;;;;35.08;10.48;;;5.60;94.90;;;;;;5006739;28;20034;-75
2021/12/19 07:43:30;;;;;;;37.40;11.35;;;5.70;94.90;;;;;;5021410;28;20046;-74
2021/12/19 07:45:56;;;;;;;39.92;13.40;;;5.70;94.90;;;;;;5010683;28;20082;-75
2021/12/19 07:48:22;;;;;;;35.10;11.57;;;5.70;94.90;;;;;;5017418;28;20042;-75
2021/12/19 07:50:48;;;;;;;47.03;11.50;;;5.70;94.90;;;;;;5008403;28;20022;-76
2021/12/19 07:53:13;;;;;;;46.78;12.95;;;5.70;94.90;;;;;;5000115;28;20023;-76
2021/12/19 07:55:39;;;;;;;39.20;13.13;;;5.70;94.90;;;;;;5007176;28;20018;-73
2021/12/19 07:58:05;;;;;;;46.58;14.32;;;5.70;94.90;;;;;;5007280;28;20046;-74
2021/12/19 08:00:31;;;;;;;56.50;16.00;;;5.70;95.00;;;;;;5001371;28;20036;-75
2021/12/19 08:02:56;;;;;;;42.65;13.10;;;5.70;94.90;;;;;;4997110;28;20101;-76
2021/12/19 08:05:22;;;;;;;47.00;14.93;;;5.70;94.90;;;;;;5006991;28;20018;-75
2021/12/19 08:07:54;;;;;;;42.33;13.43;;;5.60;94.90;;;;;;5008834;28;20040;-76
2021/12/19 08:12:49;;;;;;;38.70;13.30;;;5.60;94.90;;;;;;5008701;28;20042;-75
2021/12/19 08:15:15;;;;;;;41.30;14.07;;;5.60;95.00;;;;;;5009304;28;20041;-74
2021/12/19 08:17:41;;;;;;;36.88;14.10;;;5.60;95.00;;;;;;5005914;28;20082;-75
2021/12/19 08:20:11;;;;;;;52.92;14.00;;;5.60;95.10;;;;;;5004434;28;20394;-74
2021/12/19 08:22:37;;;;;;;39.65;14.80;;;5.60;95.10;;;;;;5019174;28;20070;-75
2021/12/19 08:25:04;;;;;;;41.28;15.65;;;5.60;95.10;;;;;;5005227;28;20082;-77
2021/12/19 08:27:30;;;;;;;38.78;14.77;;;5.60;95.00;;;;;;5005558;28;20023;-75
2021/12/19 08:29:55;;;;;;;39.65;13.20;;;5.60;95.10;;;;;;5008406;28;20041;-71
2021/12/19 08:32:22;;;;;;;41.55;15.10;;;5.60;95.10;;;;;;5001974;28;20055;-74
2021/12/19 08:34:48;;;;;;;30.15;11.45;;;5.60;95.20;;;;;;5012194;28;20085;-75
2021/12/19 08:37:15;;;;;;;59.25;13.63;;;5.60;95.00;;;;;;5019803;28;20033;-76
2021/12/19 08:39:42;;;;;;;34.90;12.85;;;5.60;95.00;;;;;;5007052;28;20104;-72
2021/12/19 08:42:09;;;;;;;26.42;9.70;;;5.60;95.10;;;;;;5005726;28;20065;-75
2021/12/19 08:44:35;;;;;;;28.58;10.25;;;5.70;95.10;;;;;;4998858;28;20081;-75
2021/12/19 08:47:01;;;;;;;30.40;11.65;;;5.70;95.10;;;;;;5035816;28;20022;-75
2021/12/19 08:49:27;;;;;;;28.98;12.43;;;5.80;95.10;;;;;;5001047;28;20037;-77
2021/12/19 08:51:53;;;;;;;27.33;11.63;;;5.70;95.00;;;;;;5018309;28;20019;-73
2021/12/19 08:54:19;;;;;;;24.52;10.38;;;5.80;95.10;;;;;;4997509;28;20031;-75
2021/12/19 08:56:44;;;;;;;24.85;10.10;;;5.80;95.00;;;;;;5000609;28;20031;-76
2021/12/19 08:59:11;;;;;;;25.17;10.35;;;5.90;95.00;;;;;;5000375;28;20046;-77
2021/12/19 09:01:37;;;;;;;29.85;10.82;;;5.80;94.90;;;;;;4995520;28;20030;-75
2021/12/19 09:04:02;;;;;;;27.48;10.20;;;5.90;94.90;;;;;;5015109;28;20030;-75
2021/12/19 09:06:28;;;;;;;24.90;10.88;;;5.90;94.80;;;;;;5005880;28;20109;-74
2021/12/19 09:08:54;;;;;;;25.88;11.10;;;5.90;94.80;;;;;;4998711;28;20027;-74
2021/12/19 09:11:21;;;;;;;26.50;10.30;;;6.00;94.90;;;;;;5000860;28;20018;-74
2021/12/19 09:13:47;;;;;;;35.40;15.70;;;6.00;94.80;;;;;;5013317;28;20037;-74
2021/12/19 09:16:13;;;;;;;29.67;12.38;;;6.10;94.90;;;;;;4998352;28;20023;-72
2021/12/19 09:18:38;;;;;;;23.92;11.32;;;6.10;94.90;;;;;;5001955;28;20046;-74
2021/12/19 09:21:05;;;;;;;26.42;10.52;;;6.20;94.90;;;;;;4996586;28;20046;-75
2021/12/19 09:23:32;;;;;;;28.80;11.95;;;6.30;94.90;;;;;;4999787;28;20030;-76
2021/12/19 09:25:58;;;;;;;24.02;10.88;;;6.30;94.80;;;;;;5018073;28;20049;-75
2021/12/19 09:28:24;;;;;;;24.75;10.07;;;6.30;94.70;;;;;;5021949;28;20030;-74
2021/12/19 09:30:50;;;;;;;24.25;9.73;;;6.40;94.70;;;;;;5021607;28;20319;-75
2021/12/19 09:33:15;;;;;;;19.55;8.68;;;6.40;94.70;;;;;;5001121;28;20029;-75
2021/12/19 09:35:41;;;;;;;20.33;8.35;;;6.40;94.60;;;;;;5008189;28;20110;-74
2021/12/19 09:38:07;;;;;;;22.27;9.07;;;6.40;94.50;;;;;;5008728;28;20042;-77
2021/12/19 09:40:37;;;;;;;20.23;8.23;;;6.50;94.60;;;;;;5008245;28;20031;-74
2021/12/19 09:43:21;;;;;;;22.38;8.55;;;6.50;94.60;;;;;;5003438;28;20054;-75
2021/12/19 09:45:52;;;;;;;17.75;7.93;;;6.50;94.50;;;;;;5020174;28;20042;-80
2021/12/19 09:48:18;;;;;;;22.27;9.35;;;6.50;94.30;;;;;;5004964;28;20030;-71
2021/12/19 09:50:44;;;;;;;23.13;9.15;;;6.50;94.30;;;;;;5014442;28;20064;-73
2021/12/19 09:53:09;;;;;;;17.48;8.48;;;6.60;94.30;;;;;;5006272;28;20039;-74
2021/12/19 09:55:35;;;;;;;22.35;9.55;;;6.60;94.20;;;;;;5000033;28;20034;-71
2021/12/19 09:58:01;;;;;;;21.05;10.55;;;6.70;94.20;;;;;;5005996;28;20030;-72
2021/12/19 10:00:28;;;;;;;19.77;10.60;;;6.80;93.90;;;;;;5002479;28;20054;-74
2021/12/19 10:02:54;;;;;;;21.60;10.23;;;6.70;93.80;;;;;;5006035;28;20018;-75
2021/12/19 10:05:25;;;;;;;21.90;10.75;;;6.70;93.50;;;;;;5006585;28;20076;-74
2021/12/19 10:07:57;;;;;;;20.40;10.20;;;6.70;93.60;;;;;;5001931;28;20293;-74
2021/12/19 10:10:45;;;;;;;27.38;9.93;;;6.80;93.60;;;;;;5019696;28;20032;-74
2021/12/19 10:13:12;;;;;;;22.95;11.20;;;6.80;93.60;;;;;;5001027;28;20058;-70
2021/12/19 10:15:39;;;;;;;22.05;12.68;;;6.70;93.50;;;;;;5007955;28;20058;-74
2021/12/19 10:18:14;;;;;;;24.70;12.50;;;6.70;93.40;;;;;;5000676;28;20092;-73
2021/12/19 10:20:50;;;;;;;21.15;11.05;;;6.60;93.50;;;;;;4997416;28;20022;-72
2021/12/19 10:23:25;;;;;;;22.05;10.55;;;6.70;93.60;;;;;;4998909;28;20019;-73
2021/12/19 10:26:03;;;;;;;23.17;11.25;;;6.70;93.70;;;;;;5003910;28;20032;-73
2021/12/19 10:28:30;;;;;;;20.40;9.88;;;6.70;93.70;;;;;;5006931;28;20022;-76
2021/12/19 10:30:58;;;;;;;20.40;9.77;;;6.70;93.70;;;;;;5004259;28;20041;-72
2021/12/19 10:33:27;;;;;;;20.92;10.88;;;6.90;93.80;;;;;;5006813;28;20028;-73
2021/12/19 10:35:56;;;;;;;22.45;10.93;;;6.90;93.80;;;;;;5000346;28;20045;-72
2021/12/19 10:38:25;;;;;;;22.73;10.80;;;7.00;93.90;;;;;;5009446;28;20046;-71
2021/12/19 10:40:56;;;;;;;17.90;9.60;;;7.10;93.70;;;;;;5011492;28;20022;-68
2021/12/19 10:43:26;;;;;;;18.23;10.02;;;7.10;93.60;;;;;;5005132;28;20034;-72
2021/12/19 10:45:59;;;;;;;18.58;9.52;;;7.20;93.60;;;;;;5023041;28;20046;-73
2021/12/19 10:48:29;;;;;;;19.55;10.52;;;7.20;93.50;;;;;;5002606;28;20037;-72
2021/12/19 10:50:56;;;;;;;19.38;10.05;;;7.20;93.30;;;;;;5009060;28;20026;-70
2021/12/19 10:53:34;;;;;;;17.30;8.68;;;7.30;93.30;;;;;;5023422;28;20126;-72
2021/12/19 10:56:03;;;;;;;20.35;10.77;;;7.20;93.20;;;;;;5014034;28;20048;-73
2021/12/19 10:58:37;;;;;;;16.90;8.80;;;7.30;93.30;;;;;;5014864;28;20988;-73
2021/12/19 11:01:06;;;;;;;18.00;7.78;;;7.40;93.30;;;;;;5007475;28;20139;-73
2021/12/19 11:03:39;;;;;;;18.45;9.50;;;7.30;93.10;;;;;;5024928;28;20034;-69
2021/12/19 11:06:25;;;;;;;17.83;9.95;;;7.30;93.20;;;;;;5017056;28;20042;-73
2021/12/19 11:08:51;;;;;;;17.83;10.00;;;7.30;93.10;;;;;;5014896;28;20026;-73
2021/12/19 11:11:32;;;;;;;18.17;11.40;;;7.30;93.00;;;;;;5005869;28;20113;-74
2021/12/19 11:13:58;;;;;;;16.38;8.73;;;7.30;93.10;;;;;;4999906;28;20047;-74
2021/12/19 11:16:25;;;;;;;16.88;9.75;;;7.40;93.20;;;;;;5008123;28;20042;-75
2021/12/19 11:18:51;;;;;;;19.60;13.10;;;7.30;93.20;;;;;;5034182;28;20054;-74
2021/12/19 11:21:18;;;;;;;16.52;9.95;;;7.40;93.20;;;;;;5006169;28;20029;-72
2021/12/19 11:23:45;;;;;;;15.82;8.98;;;7.30;93.10;;;;;;5010077;28;20026;-74
2021/12/19 11:26:11;;;;;;;18.33;9.65;;;7.30;93.20;;;;;;5004884;28;20018;-75
2021/12/19 11:28:37;;;;;;;17.42;8.77;;;7.30;93.20;;;;;;5013728;28;20065;-74
2021/12/19 11:31:04;;;;;;;16.40;8.57;;;7.30;93.20;;;;;;5015024;28;20031;-71
2021/12/19 11:34:05;;;;;;;17.98;9.27;;;7.30;93.30;;;;;;5005977;28;20097;-74
2021/12/19 11:36:39;;;;;;;18.45;9.10;;;7.30;93.40;;;;;;5000330;28;20026;-76
2021/12/19 11:39:07;;;;;;;15.90;9.03;;;7.40;93.40;;;;;;5007109;28;20049;-74
2021/12/19 11:41:34;;;;;;;19.40;9.68;;;7.40;93.50;;;;;;4997261;28;20269;-77
2021/12/19 11:44:03;;;;;;;19.25;10.15;;;7.40;93.40;;;;;;5006903;28;20054;-73
2021/12/19 11:46:49;;;;;;;21.10;10.95;;;7.40;93.30;;;;;;5001767;28;20018;-76
2021/12/19 11:49:26;;;;;;;18.73;9.57;;;7.40;93.40;;;;;;5018670;28;20066;-73
2021/12/19 11:52:22;;;;;;;18.60;10.25;;;7.40;93.40;;;;;;5008134;28;20094;-78
2021/12/19 11:55:15;;;;;;;20.70;10.27;;;7.40;93.60;;;;;;5003703;28;20064;-72
2021/12/19 11:57:43;;;;;;;18.17;10.02;;;7.40;93.70;;;;;;5005207;28;20089;-75
2021/12/19 12:00:28;;;;;;;20.10;11.23;;;7.40;93.70;;;;;;5008916;28;20054;-76
2021/12/19 12:03:18;;;;;;;17.48;11.20;;;7.50;93.70;;;;;;5004070;28;20026;-72
2021/12/19 12:05:52;;;;;;;18.88;10.55;;;7.60;93.80;;;;;;4987695;28;20037;-74
2021/12/19 12:08:22;;;;;;;15.35;9.27;;;7.60;93.80;;;;;;5025663;28;20110;-76
2021/12/19 12:10:48;;;;;;;13.27;8.02;;;7.60;93.70;;;;;;5009706;28;20061;-74
2021/12/19 12:13:24;;;;;;;11.55;6.78;;;7.50;93.70;;;;;;5008221;28;20081;-75
2021/12/19 12:15:53;;;;;;;13.18;7.63;;;7.50;93.50;;;;;;5038640;28;20061;-74
2021/12/19 12:18:37;;;;;;;10.80;6.20;;;7.60;93.50;;;;;;5011255;28;20026;-75
2021/12/19 12:21:34;;;;;;;10.52;6.97;;;7.50;93.60;;;;;;5011231;28;20022;-73
2021/12/19 12:24:06;;;;;;;8.63;4.95;;;7.50;93.80;;;;;;5022826;28;20037;-75
2021/12/19 12:26:39;;;;;;;10.85;6.65;;;7.60;93.80;;;;;;5015537;28;20027;-72
2021/12/19 12:29:05;;;;;;;9.65;5.32;;;7.60;93.60;;;;;;5016963;28;20034;-73
2021/12/19 12:31:31;;;;;;;7.68;4.50;;;7.70;93.50;;;;;;5018869;28;20061;-75
2021/12/19 12:33:57;;;;;;;7.22;4.03;;;7.60;93.20;;;;;;5018100;28;20026;-74
2021/12/19 12:36:23;;;;;;;5.50;3.22;;;7.60;93.20;;;;;;5010758;28;20019;-75
2021/12/19 12:38:52;;;;;;;5.88;3.40;;;7.60;93.20;;;;;;5002921;28;20052;-73
2021/12/19 12:42:11;;;;;;;6.63;3.38;;;7.70;93.30;;;;;;5009470;28;20042;-74
2021/12/19 12:44:17;;;;;;;6.25;3.17;;;7.60;93.10;;;;;;5003822;28;20022;-74
2021/12/19 12:46:44;;;;;;;6.93;3.42;;;7.60;92.90;;;;;;5010264;28;20023;-74
2021/12/19 12:49:15;;;;;;;5.53;2.75;;;7.70;93.00;;;;;;5009130;28;20041;-75
2021/12/19 12:51:44;;;;;;;4.57;2.63;;;7.70;92.70;;;;;;4999159;28;20124;-74
2021/12/19 12:54:14;;;;;;;6.07;3.38;;;7.70;92.50;;;;;;5009078;28;20034;-70
2021/12/19 12:56:47;;;;;;;5.95;2.92;;;7.70;92.50;;;;;;5007637;28;20018;-74
2021/12/19 12:59:16;;;;;;;4.85;2.92;;;7.80;92.70;;;;;;5012592;28;20034;-74
2021/12/19 13:01:49;;;;;;;6.47;2.92;;;7.80;92.60;;;;;;5009081;28;20022;-73
2021/12/19 13:04:23;;;;;;;5.07;2.80;;;7.80;92.60;;;;;;5000716;28;20050;-74
2021/12/19 13:06:56;;;;;;;6.82;2.97;;;7.90;92.70;;;;;;5003949;28;20033;-71
2021/12/19 13:09:34;;;;;;;5.30;2.80;;;7.90;92.60;;;;;;5011002;28;20070;-72
2021/12/19 13:12:24;;;;;;;7.55;3.35;;;7.80;92.70;;;;;;5008798;28;20038;-73
2021/12/19 13:14:56;;;;;;;6.80;3.50;;;7.90;92.90;;;;;;5009819;28;20042;-73
2021/12/19 13:17:24;;;;;;;8.90;4.32;;;7.80;93.00;;;;;;5006905;28;20050;-74
2021/12/19 13:20:05;;;;;;;9.30;4.95;;;7.90;93.10;;;;;;5019691;28;20202;-73
2021/12/19 13:22:43;;;;;;;8.90;5.07;;;7.80;93.00;;;;;;5009906;28;20066;-74
2021/12/19 13:25:12;;;;;;;8.48;5.40;;;7.80;93.20;;;;;;5014649;28;20034;-68
2021/12/19 13:27:41;;;;;;;9.77;5.80;;;7.70;93.40;;;;;;5013938;28;20098;-73
2021/12/19 13:30:24;;;;;;;7.13;4.28;;;7.80;93.50;;;;;;5012172;28;20041;-71
2021/12/19 13:32:55;;;;;;;12.85;8.02;;;7.70;93.30;;;;;;5038766;28;20049;-71
2021/12/19 13:35:43;;;;;;;8.23;5.18;;;7.60;93.10;;;;;;5014178;28;20050;-74
2021/12/19 13:38:11;;;;;;;8.30;4.72;;;7.60;93.10;;;;;;5005518;28;20081;-74
2021/12/19 13:40:49;;;;;;;7.95;4.93;;;7.60;93.10;;;;;;5011928;28;20061;-71
2021/12/19 13:43:17;;;;;;;7.32;4.50;;;7.60;93.10;;;;;;5012338;28;20029;-74
2021/12/19 13:46:01;;;;;;;8.50;4.95;;;7.60;93.20;;;;;;5012503;28;20030;-74
2021/12/19 13:48:37;;;;;;;10.55;6.70;;;7.70;93.10;;;;;;5006989;28;20033;-72
2021/12/19 13:51:23;;;;;;;10.57;5.88;;;7.60;93.10;;;;;;5016934;28;20033;-72
2021/12/19 13:53:53;;;;;;;12.30;7.05;;;7.70;93.10;;;;;;5013933;28;20082;-73
2021/12/19 13:56:27;;;;;;;11.52;6.35;;;7.70;93.20;;;;;;5015892;28;20034;-74
2021/12/19 13:58:55;;;;;;;12.27;6.50;;;7.70;93.20;;;;;;5008410;28;20117;-72
2021/12/19 14:01:27;;;;;;;11.13;6.97;;;7.70;93.20;;;;;;5009352;28;20030;-74